Time;durP1;ratioP1;P1;durP2;ratioP2;P2;SDS_P1;SDS_P2;PMS_P1;PMS_P2;Temp;Humidity;BMP_temperature;BMP_pressure;BME280_temperature;BME280_humidity;BME280_pressure;Samples;Min_cycle;Max_cycle;Signal;HPM_P1;HPM_P2
2021/12/01 00:01:58;;;;;;;6.97;5.57;;;;;;;8.89;100.00;99910.06;4947906;29;20118;-79
2021/12/01 00:04:23;;;;;;;6.65;5.28;;;;;;;8.88;100.00;99908.31;4963861;28;20035;-80
2021/12/01 00:06:49;;;;;;;6.20;4.93;;;;;;;8.85;100.00;99894.94;4982592;28;20038;-80
2021/12/01 00:09:14;;;;;;;5.22;4.72;;;;;;;8.85;100.00;99892.19;4967821;28;20042;-80
2021/12/01 00:11:40;;;;;;;4.95;4.47;;;;;;;8.87;100.00;99882.88;4947144;29;20074;-79
2021/12/01 00:14:05;;;;;;;5.88;4.72;;;;;;;8.89;100.00;99882.75;4963546;28;20110;-79
2021/12/01 00:16:30;;;;;;;5.45;4.72;;;;;;;8.83;100.00;99876.81;4978258;28;20058;-80
2021/12/01 00:18:56;;;;;;;7.63;5.40;;;;;;;8.86;100.00;99859.31;4960964;28;20236;-80
2021/12/01 00:21:21;;;;;;;6.90;5.75;;;;;;;8.85;100.00;99864.91;4957135;28;20035;-80
2021/12/01 00:23:47;;;;;;;4.75;4.25;;;;;;;8.88;100.00;99850.97;4975968;28;20031;-80
2021/12/01 00:26:12;;;;;;;6.65;4.97;;;;;;;8.88;100.00;99849.09;4957623;28;20062;-80
2021/12/01 00:28:38;;;;;;;6.28;5.15;;;;;;;8.86;100.00;99836.63;4963724;29;20038;-81
2021/12/01 00:31:04;;;;;;;6.75;4.93;;;;;;;8.88;100.00;99826.41;4964119;28;20035;-80
2021/12/01 00:33:29;;;;;;;7.55;5.35;;;;;;;8.78;100.00;99804.53;4978638;28;20051;-80
2021/12/01 00:35:56;;;;;;;7.72;5.38;;;;;;;8.85;100.00;99811.16;4964212;28;20145;-80
2021/12/01 00:38:24;;;;;;;10.80;5.68;;;;;;;8.85;100.00;99794.78;4964251;28;20042;-80
2021/12/01 00:40:50;;;;;;;5.82;4.40;;;;;;;8.88;100.00;99793.66;4945868;29;20696;-80
2021/12/01 00:43:17;;;;;;;7.35;5.28;;;;;;;8.89;100.00;99784.47;4964507;28;20050;-80
2021/12/01 00:46:00;;;;;;;3.92;3.63;;;;;;;8.92;100.00;99776.88;4963551;28;20027;-81
2021/12/01 00:48:26;;;;;;;4.95;4.55;;;;;;;8.92;100.00;99768.69;4975896;28;20039;-81
2021/12/01 00:50:54;;;;;;;6.30;4.78;;;;;;;8.86;100.00;99752.00;4962056;28;20083;-78
2021/12/01 00:53:20;;;;;;;5.35;4.80;;;;;;;8.89;100.00;99755.31;4962367;29;20492;-79
2021/12/01 00:55:46;;;;;;;5.20;4.70;;;;;;;8.90;100.00;99764.34;4962428;28;20086;-79
2021/12/01 00:58:13;;;;;;;5.35;4.85;;;;;;;8.88;100.00;99758.19;4945703;28;20062;-79
2021/12/01 01:00:40;;;;;;;6.78;4.80;;;;;;;8.85;100.00;99748.38;4961409;28;20058;-79
2021/12/01 01:03:06;;;;;;;4.68;4.15;;;;;;;8.85;100.00;99747.53;4961594;28;20043;-79
2021/12/01 01:05:31;;;;;;;7.25;4.70;;;;;;;8.86;100.00;99732.91;4958187;29;20154;-79
2021/12/01 01:07:57;;;;;;;7.60;5.35;;;;;;;8.85;100.00;99728.44;4958852;28;20032;-79
2021/12/01 01:18:29;;;;;;;7.55;5.00;;;;;;;8.82;100.00;99707.72;4961057;28;20037;-79
2021/12/01 01:20:54;;;;;;;11.13;6.90;;;;;;;8.87;100.00;99716.38;4962536;28;20047;-79
2021/12/01 01:23:21;;;;;;;5.53;4.70;;;;;;;8.83;100.00;99717.66;4961544;28;20078;-79
2021/12/01 01:25:47;;;;;;;6.22;4.95;;;;;;;8.87;100.00;99704.56;4970965;28;20031;-79
2021/12/01 01:28:12;;;;;;;8.23;5.60;;;;;;;8.85;100.00;99701.13;4946076;28;20049;-79
2021/12/01 01:30:38;;;;;;;7.38;4.97;;;;;;;8.81;100.00;99681.44;4976299;28;20046;-79
2021/12/01 01:33:03;;;;;;;7.32;5.80;;;;;;;8.85;100.00;99684.75;4961792;29;20063;-79
2021/12/01 01:35:29;;;;;;;5.90;4.88;;;;;;;8.78;100.00;99668.06;4963485;28;20027;-79
2021/12/01 01:37:55;;;;;;;7.30;6.43;;;;;;;8.72;100.00;99668.63;4945983;28;20125;-79
2021/12/01 01:40:20;;;;;;;8.95;5.70;;;;;;;8.69;100.00;99667.06;4963868;28;20023;-78
2021/12/01 01:42:48;;;;;;;9.55;6.05;;;;;;;8.70;100.00;99662.44;4973763;28;20042;-79
2021/12/01 01:45:14;;;;;;;9.23;6.40;;;;;;;8.76;100.00;99654.56;4976307;28;20050;-79
2021/12/01 01:47:59;;;;;;;6.68;5.55;;;;;;;8.75;100.00;99668.34;4960807;28;20038;-79
2021/12/01 01:50:46;;;;;;;5.47;4.35;;;;;;;8.74;100.00;99664.75;4942115;29;20543;-79
2021/12/01 01:53:21;;;;;;;10.02;6.68;;;;;;;8.72;100.00;99663.16;4960447;28;20044;-79
2021/12/01 01:55:49;;;;;;;8.15;7.00;;;;;;;8.64;100.00;99664.75;4985831;28;20055;-79
2021/12/01 01:58:15;;;;;;;6.70;5.53;;;;;;;8.64;100.00;99653.81;4978688;28;20079;-79
2021/12/01 02:01:04;;;;;;;9.98;6.43;;;;;;;8.73;100.00;99667.63;4961551;29;20050;-79
2021/12/01 02:03:29;;;;;;;8.60;6.20;;;;;;;8.67;100.00;99646.34;4961590;28;20031;-80
2021/12/01 02:05:56;;;;;;;10.30;5.72;;;;;;;8.67;100.00;99658.13;4945557;28;20038;-79
2021/12/01 02:08:29;;;;;;;7.22;5.80;;;;;;;8.67;100.00;99646.34;4959182;28;20097;-81
2021/12/01 02:10:58;;;;;;;7.57;5.72;;;;;;;8.60;100.00;99616.88;4976712;28;20043;-80
2021/12/01 02:13:24;;;;;;;7.57;6.20;;;;;;;8.54;100.00;99633.81;4967024;28;20038;-81
2021/12/01 02:15:51;;;;;;;8.13;5.95;;;;;;;8.65;100.00;99633.69;4945537;29;20039;-79
2021/12/01 02:18:22;;;;;;;5.32;4.82;;;;;;;8.63;100.00;99615.75;4960643;29;20038;-78
2021/12/01 02:20:57;;;;;;;9.85;6.53;;;;;;;8.62;100.00;99622.22;4963003;28;20035;-78
2021/12/01 02:23:23;;;;;;;6.43;5.50;;;;;;;8.59;100.00;99614.31;4964923;28;20073;-78
2021/12/01 02:25:49;;;;;;;7.47;5.90;;;;;;;8.64;100.00;99614.75;4964855;29;20031;-79
2021/12/01 02:28:16;;;;;;;7.30;4.57;;;;;;;8.65;100.00;99611.03;4946672;28;20035;-79
2021/12/01 02:30:41;;;;;;;4.72;4.20;;;;;;;8.64;100.00;99599.25;4962681;28;20456;-79
2021/12/01 02:33:07;;;;;;;7.47;5.25;;;;;;;8.63;100.00;99591.22;4933697;29;20042;-80
2021/12/01 02:35:33;;;;;;;3.92;3.22;;;;;;;8.68;100.00;99588.91;4984802;28;20035;-79
2021/12/01 02:37:59;;;;;;;5.85;3.70;;;;;;;8.54;100.00;99571.06;4960387;29;20043;-78
2021/12/01 02:40:24;;;;;;;5.35;3.33;;;;;;;8.70;100.00;99567.78;4978491;28;20023;-80
2021/12/01 02:42:50;;;;;;;3.00;2.67;;;;;;;8.65;100.00;99554.56;4980253;28;20479;-81
2021/12/01 02:45:15;;;;;;;6.55;3.45;;;;;;;8.60;100.00;99561.47;4955054;29;20043;-80
2021/12/01 02:47:41;;;;;;;4.22;2.85;;;;;;;8.63;100.00;99561.19;4964619;29;20062;-81
2021/12/01 02:50:07;;;;;;;5.07;3.28;;;;;;;8.55;100.00;99545.53;4980469;28;20081;-80
2021/12/01 02:52:34;;;;;;;2.33;1.90;;;;;;;8.49;100.00;99534.31;4963356;29;20031;-81
2021/12/01 02:55:06;;;;;;;3.58;2.65;;;;;;;8.39;100.00;99509.72;4980322;28;20050;-81
2021/12/01 02:57:46;;;;;;;3.25;2.33;;;;;;;8.55;100.00;99531.88;4947626;29;20039;-80
2021/12/01 03:00:12;;;;;;;4.18;3.00;;;;;;;8.53;100.00;99522.13;4964109;29;20034;-80
2021/12/01 03:02:39;;;;;;;3.70;2.90;;;;;;;8.51;100.00;99521.38;4963829;29;20043;-80
2021/12/01 03:05:06;;;;;;;3.97;2.50;;;;;;;8.51;100.00;99522.28;4963686;29;20030;-79
2021/12/01 03:07:33;;;;;;;4.07;3.25;;;;;;;8.41;100.00;99503.13;4968497;28;20038;-80
2021/12/01 03:09:59;;;;;;;10.15;3.45;;;;;;;8.45;100.00;99503.72;4964094;28;20039;-80
2021/12/01 03:12:32;;;;;;;3.42;3.00;;;;;;;8.39;100.00;99487.91;4963832;28;20093;-80
2021/12/01 03:14:58;;;;;;;7.43;2.33;;;;;;;8.43;100.00;99486.66;4962819;28;20426;-80
2021/12/01 03:17:26;;;;;;;3.58;2.65;;;;;;;8.35;100.00;99491.94;4964321;28;20035;-81
2021/12/01 03:19:52;;;;;;;3.15;2.85;;;;;;;8.37;100.00;99471.66;4963986;29;20122;-81
2021/12/01 03:22:18;;;;;;;4.78;2.50;;;;;;;8.36;100.00;99475.44;4980049;28;20450;-81
2021/12/01 03:24:43;;;;;;;7.38;2.88;;;;;;;8.36;100.00;99471.81;4962478;29;20491;-81
2021/12/01 03:27:09;;;;;;;3.38;2.85;;;;;;;8.33;100.00;99458.47;4979854;28;20035;-81
2021/12/01 03:29:34;;;;;;;2.25;2.05;;;;;;;8.38;100.00;99464.34;4972184;28;20058;-81
2021/12/01 03:32:00;;;;;;;4.10;3.42;;;;;;;8.35;100.00;99446.41;4947573;29;20035;-81
2021/12/01 03:34:25;;;;;;;4.50;3.13;;;;;;;8.32;100.00;99438.50;4980100;28;20040;-81
2021/12/01 03:36:51;;;;;;;5.20;3.28;;;;;;;8.31;100.00;99458.59;4963288;28;20039;-81
2021/12/01 03:39:16;;;;;;;3.83;3.33;;;;;;;8.22;100.00;99437.66;4963638;29;20032;-81
2021/12/01 03:41:42;;;;;;;5.40;3.13;;;;;;;8.31;100.00;99435.94;4980546;28;20062;-81
2021/12/01 03:44:08;;;;;;;3.58;2.80;;;;;;;8.27;100.00;99449.00;4961181;28;20526;-81
2021/12/01 03:46:34;;;;;;;4.35;3.15;;;;;;;8.25;100.00;99426.47;4975253;28;20106;-81
2021/12/01 03:49:00;;;;;;;5.18;3.92;;;;;;;8.25;100.00;99421.00;4963612;28;20435;-81
2021/12/01 03:51:25;;;;;;;4.82;3.85;;;;;;;8.27;100.00;99419.84;4947566;29;20063;-81
2021/12/01 03:53:51;;;;;;;4.68;2.92;;;;;;;8.25;100.00;99400.06;4963206;29;20039;-81
2021/12/01 03:56:19;;;;;;;3.67;3.08;;;;;;;8.21;100.00;99398.59;4965062;28;20027;-81
2021/12/01 03:58:46;;;;;;;7.05;4.05;;;;;;;8.18;100.00;99401.63;4966499;28;20038;-81
2021/12/01 04:01:12;;;;;;;4.78;3.95;;;;;;;8.13;100.00;99382.09;4964288;29;20061;-81
2021/12/01 04:03:38;;;;;;;4.25;2.85;;;;;;;8.20;100.00;99377.81;4946157;29;20035;-81
2021/12/01 04:06:04;;;;;;;4.50;3.30;;;;;;;8.18;100.00;99381.66;4961003;29;20032;-81
2021/12/01 04:08:30;;;;;;;6.30;3.92;;;;;;;8.14;100.00;99372.06;4942468;29;20690;-81
2021/12/01 04:10:55;;;;;;;6.13;3.92;;;;;;;8.09;100.00;99367.03;4979958;28;20035;-81
2021/12/01 04:13:21;;;;;;;8.88;3.38;;;;;;;8.05;100.00;99351.97;4965638;28;20031;-81
2021/12/01 04:15:47;;;;;;;4.07;3.15;;;;;;;8.01;100.00;99343.22;4979904;28;20114;-81
2021/12/01 04:18:12;;;;;;;5.75;4.50;;;;;;;7.93;100.00;99324.00;4984548;28;20030;-80
2021/12/01 04:20:38;;;;;;;10.82;4.93;;;;;;;7.91;100.00;99334.19;4996800;28;20031;-82
2021/12/01 04:23:04;;;;;;;9.60;4.22;;;;;;;7.90;100.00;99299.75;4963710;28;20078;-81
2021/12/01 04:25:30;;;;;;;6.70;4.15;;;;;;;7.90;100.00;99294.28;4955435;28;20039;-81
2021/12/01 04:27:56;;;;;;;5.78;4.07;;;;;;;7.85;100.00;99283.81;4973624;28;20106;-81
2021/12/01 04:30:23;;;;;;;6.25;4.05;;;;;;;7.87;100.00;99283.69;4953634;29;20070;-81
2021/12/01 04:32:51;;;;;;;3.83;3.08;;;;;;;7.94;100.00;99284.84;4948126;28;20035;-81
2021/12/01 04:35:18;;;;;;;4.82;3.45;;;;;;;7.91;100.00;99276.94;4959141;28;20031;-80
2021/12/01 04:37:46;;;;;;;4.65;4.03;;;;;;;7.86;100.00;99271.94;4963037;29;20062;-80
2021/12/01 04:40:13;;;;;;;3.97;2.75;;;;;;;7.88;100.00;99278.09;4962713;28;20118;-80
2021/12/01 04:42:39;;;;;;;6.40;2.88;;;;;;;7.88;100.00;99266.34;4983000;28;20537;-81
2021/12/01 04:45:08;;;;;;;5.07;3.03;;;;;;;7.86;100.00;99262.91;4963951;28;20047;-80
2021/12/01 04:47:38;;;;;;;5.82;4.60;;;;;;;7.80;100.00;99275.22;4947335;29;20062;-80
2021/12/01 04:50:05;;;;;;;7.38;4.07;;;;;;;7.76;100.00;99243.84;4962340;29;20122;-81
2021/12/01 04:52:31;;;;;;;5.00;3.83;;;;;;;7.60;100.00;99225.31;4962693;28;20404;-80
2021/12/01 04:54:56;;;;;;;5.53;4.50;;;;;;;7.66;100.00;99235.66;4966531;28;20057;-81
2021/12/01 04:57:21;;;;;;;6.90;4.00;;;;;;;7.70;100.00;99217.16;4972976;28;20090;-80
2021/12/01 04:59:48;;;;;;;5.60;4.45;;;;;;;7.65;100.00;99214.84;4963805;28;20372;-81
2021/12/01 05:02:14;;;;;;;11.68;4.45;;;;;;;7.63;100.00;99205.13;4965986;28;20141;-81
2021/12/01 05:04:41;;;;;;;5.68;4.25;;;;;;;7.61;100.00;99201.66;4954603;28;20070;-81
2021/12/01 05:07:07;;;;;;;8.10;4.88;;;;;;;7.65;100.00;99192.22;4964532;28;20370;-81
2021/12/01 05:09:32;;;;;;;5.15;3.38;;;;;;;7.67;100.00;99184.75;4948334;28;20118;-81
2021/12/01 05:11:59;;;;;;;6.18;4.05;;;;;;;7.72;100.00;99183.34;4962749;29;20062;-82
2021/12/01 05:14:25;;;;;;;5.72;3.67;;;;;;;7.71;100.00;99169.84;4946550;29;20043;-81
2021/12/01 05:16:51;;;;;;;7.10;4.68;;;;;;;7.70;100.00;99166.25;4975764;28;20443;-81
2021/12/01 05:19:17;;;;;;;4.00;2.97;;;;;;;7.63;100.00;99156.09;4995746;28;20030;-80
2021/12/01 05:21:42;;;;;;;3.72;3.17;;;;;;;7.78;100.00;99156.50;4977673;28;20019;-80
2021/12/01 05:24:09;;;;;;;6.32;3.58;;;;;;;7.71;100.00;99167.13;4962328;29;20058;-79
2021/12/01 05:26:35;;;;;;;4.75;3.88;;;;;;;7.68;100.00;99170.13;4976710;28;20039;-79
2021/12/01 05:29:01;;;;;;;5.28;4.00;;;;;;;7.62;100.00;99148.91;4979164;28;20034;-80
2021/12/01 05:31:27;;;;;;;5.88;4.07;;;;;;;7.61;100.00;99141.75;4976489;28;20376;-80
2021/12/01 05:33:53;;;;;;;7.43;4.10;;;;;;;7.60;100.00;99142.75;4959133;28;20039;-80
2021/12/01 05:36:18;;;;;;;5.85;2.85;;;;;;;7.59;100.00;99143.75;4961139;29;20399;-80
2021/12/01 05:38:44;;;;;;;2.55;2.17;;;;;;;7.57;100.00;99132.16;4977470;28;20031;-81
2021/12/01 05:41:09;;;;;;;5.20;3.15;;;;;;;7.50;100.00;99138.19;4977014;28;20094;-80
2021/12/01 05:43:35;;;;;;;3.75;3.03;;;;;;;7.46;100.00;99125.00;4945906;28;20051;-81
2021/12/01 05:46:01;;;;;;;3.58;3.20;;;;;;;7.44;100.00;99116.13;4960393;29;20035;-80
2021/12/01 05:48:26;;;;;;;3.08;2.58;;;;;;;7.45;100.00;99117.84;4960892;28;20039;-80
2021/12/01 05:50:52;;;;;;;4.13;3.20;;;;;;;7.39;100.00;99108.38;4976012;28;20046;-80
2021/12/01 05:53:19;;;;;;;3.47;3.17;;;;;;;7.44;100.00;99097.91;4961780;28;20031;-83
2021/12/01 05:55:44;;;;;;;5.70;3.13;;;;;;;7.38;100.00;99093.06;4958408;29;20506;-80
2021/12/01 05:58:10;;;;;;;5.10;3.50;;;;;;;7.38;100.00;99090.34;4963519;28;20019;-82
2021/12/01 06:00:36;;;;;;;3.67;3.25;;;;;;;7.39;100.00;99081.16;4961124;29;20031;-80
2021/12/01 06:03:02;;;;;;;2.63;1.90;;;;;;;7.42;100.00;99083.59;4956384;28;20078;-80
2021/12/01 06:05:27;;;;;;;5.00;2.72;;;;;;;7.35;100.00;99090.63;4959407;28;20036;-80
2021/12/01 06:07:54;;;;;;;5.07;3.67;;;;;;;7.38;100.00;99074.00;4968407;28;20398;-81
2021/12/01 06:10:19;;;;;;;2.90;2.50;;;;;;;7.40;100.00;99077.44;4975993;28;20034;-80
2021/12/01 06:12:48;;;;;;;3.60;2.80;;;;;;;7.42;100.00;99069.97;4973864;28;20031;-80
2021/12/01 06:15:17;;;;;;;7.15;3.22;;;;;;;7.35;100.00;99068.84;4962024;28;20451;-80
2021/12/01 06:17:43;;;;;;;6.55;3.30;;;;;;;7.24;100.00;99042.63;4960060;29;20055;-81
2021/12/01 06:20:10;;;;;;;3.15;2.80;;;;;;;7.30;100.00;99042.06;4950066;29;20063;-80
2021/12/01 06:22:44;;;;;;;3.33;2.70;;;;;;;7.26;100.00;99031.59;4948127;29;20163;-80
2021/12/01 06:25:11;;;;;;;5.95;2.72;;;;;;;7.37;100.00;99023.28;4966705;28;20050;-80
2021/12/01 06:27:38;;;;;;;4.20;2.38;;;;;;;7.39;100.00;99045.75;4977444;28;20118;-79
2021/12/01 06:30:12;;;;;;;3.90;2.60;;;;;;;7.44;100.00;99018.94;4946282;29;20043;-80
2021/12/01 06:32:38;;;;;;;4.47;2.90;;;;;;;7.20;100.00;98997.66;4964069;29;20035;-81
2021/12/01 06:35:05;;;;;;;4.00;2.22;;;;;;;7.35;100.00;99008.97;4943428;29;20098;-80
2021/12/01 06:37:35;;;;;;;3.95;2.97;;;;;;;7.28;100.00;98992.34;4959961;29;20067;-79
2021/12/01 06:40:00;;;;;;;2.72;2.38;;;;;;;7.38;100.00;98988.72;4958206;29;20364;-79
2021/12/01 06:42:28;;;;;;;3.40;2.75;;;;;;;7.35;100.00;98979.00;4961252;29;20047;-79
2021/12/01 06:44:54;;;;;;;2.50;2.30;;;;;;;7.37;100.00;98993.31;4956171;29;20070;-79
2021/12/01 06:47:20;;;;;;;5.07;2.08;;;;;;;7.38;100.00;98986.88;4929878;29;20039;-79
2021/12/01 06:49:47;;;;;;;4.18;2.38;;;;;;;7.40;100.00;98987.59;4943741;29;20035;-79
2021/12/01 06:52:14;;;;;;;3.25;2.60;;;;;;;7.49;100.00;98986.72;4975451;28;20391;-79
2021/12/01 06:54:40;;;;;;;3.80;2.85;;;;;;;7.36;100.00;98972.53;4960653;29;20035;-79
2021/12/01 06:57:05;;;;;;;7.20;3.22;;;;;;;7.42;100.00;98987.44;4979475;28;20031;-80
2021/12/01 06:59:31;;;;;;;5.70;2.70;;;;;;;7.51;100.00;98976.53;4943937;28;20035;-80
2021/12/01 07:01:56;;;;;;;4.82;2.47;;;;;;;7.50;100.00;98977.50;4965684;28;20058;-80
2021/12/01 07:04:22;;;;;;;3.55;1.90;;;;;;;7.55;100.00;98958.84;4960144;28;20174;-80
2021/12/01 07:06:47;;;;;;;4.18;2.47;;;;;;;7.55;100.00;98956.13;4977160;28;20035;-79
2021/12/01 07:09:18;;;;;;;3.50;2.08;;;;;;;7.55;100.00;98958.00;4979937;28;20402;-78
2021/12/01 07:11:45;;;;;;;2.00;1.73;;;;;;;7.65;100.00;98960.69;4980759;28;20071;-79
2021/12/01 07:14:11;;;;;;;4.05;2.05;;;;;;;7.63;100.00;98963.56;4961447;28;20041;-78
2021/12/01 07:16:37;;;;;;;4.97;2.35;;;;;;;7.62;100.00;98958.28;4962004;28;20055;-78
2021/12/01 07:19:03;;;;;;;2.75;2.50;;;;;;;7.68;100.00;98961.25;4978259;28;20023;-79
2021/12/01 07:21:29;;;;;;;2.30;2.10;;;;;;;7.68;100.00;98961.25;4962437;28;20031;-79
2021/12/01 07:23:54;;;;;;;3.25;2.35;;;;;;;7.66;100.00;98952.38;4938964;29;20136;-78
2021/12/01 07:26:19;;;;;;;6.20;2.35;;;;;;;7.68;100.00;98949.50;4951185;29;20035;-79
2021/12/01 07:28:45;;;;;;;3.78;2.78;;;;;;;7.65;100.00;98947.06;4972875;28;20031;-80
2021/12/01 07:31:10;;;;;;;2.63;1.73;;;;;;;7.71;100.00;98938.31;4959426;28;20054;-78
2021/12/01 07:33:36;;;;;;;2.63;2.40;;;;;;;7.71;100.00;98930.13;4957007;28;20036;-77
2021/12/01 07:36:01;;;;;;;2.40;1.83;;;;;;;7.70;100.00;98933.88;4958031;28;20034;-80
2021/12/01 07:38:27;;;;;;;2.28;1.92;;;;;;;7.77;100.00;98932.25;4963341;29;20023;-81
2021/12/01 07:40:52;;;;;;;2.00;1.80;;;;;;;7.76;100.00;98932.41;4948542;29;20023;-79
2021/12/01 07:43:18;;;;;;;2.20;2.00;;;;;;;7.73;100.00;98934.41;4963915;28;20167;-80
2021/12/01 07:45:44;;;;;;;1.60;1.50;;;;;;;7.80;100.00;98926.50;4979625;28;20368;-80
2021/12/01 07:48:12;;;;;;;1.67;1.55;;;;;;;7.83;100.00;98925.34;4975978;28;20394;-78
2021/12/01 07:50:39;;;;;;;1.80;1.70;;;;;;;7.88;100.00;98934.75;4960021;28;20051;-78
2021/12/01 07:53:04;;;;;;;2.15;1.85;;;;;;;7.86;100.00;98920.44;4960642;28;20046;-79
2021/12/01 07:55:30;;;;;;;2.35;1.80;;;;;;;7.89;100.00;98920.13;4990065;28;20522;-80
2021/12/01 07:57:55;;;;;;;2.30;2.00;;;;;;;7.85;100.00;98917.88;4995263;28;20557;-80
2021/12/01 08:00:22;;;;;;;5.05;2.40;;;;;;;7.84;100.00;98906.13;4990095;28;20027;-81
2021/12/01 08:02:47;;;;;;;2.88;1.88;;;;;;;7.80;100.00;98901.97;4969600;28;20043;-80
2021/12/01 08:05:13;;;;;;;2.53;1.95;;;;;;;7.79;100.00;98905.72;4973019;28;20042;-80
2021/12/01 08:07:39;;;;;;;3.15;2.13;;;;;;;7.85;100.00;98906.97;4971852;28;20165;-80
2021/12/01 08:10:06;;;;;;;3.70;2.40;;;;;;;7.87;100.00;98908.53;4964303;28;20084;-80
2021/12/01 08:12:35;;;;;;;2.63;2.13;;;;;;;7.87;100.00;98904.94;4966035;28;20036;-81
2021/12/01 08:15:04;;;;;;;4.82;2.20;;;;;;;7.85;100.00;98905.09;4969166;28;20050;-80
2021/12/01 08:17:29;;;;;;;2.67;2.47;;;;;;;7.79;100.00;98905.72;4945796;28;20031;-80
2021/12/01 08:19:57;;;;;;;2.80;2.58;;;;;;;7.83;100.00;98903.53;4968342;28;20062;-80
2021/12/01 08:22:24;;;;;;;4.10;2.42;;;;;;;7.86;100.00;98901.38;4954869;28;20123;-79
2021/12/01 08:24:49;;;;;;;3.60;2.45;;;;;;;7.86;100.00;98901.38;4954385;29;20035;-80
2021/12/01 08:27:16;;;;;;;3.70;2.45;;;;;;;7.93;100.00;98890.72;4955435;29;20042;-80
2021/12/01 08:29:41;;;;;;;2.88;2.58;;;;;;;7.91;100.00;98890.00;4957767;29;20024;-80
2021/12/01 08:32:07;;;;;;;2.75;1.90;;;;;;;7.89;100.00;98883.88;4952364;29;20399;-80
2021/12/01 08:34:32;;;;;;;3.58;2.40;;;;;;;7.93;100.00;98877.09;4961239;28;20062;-80
2021/12/01 08:36:59;;;;;;;9.75;3.67;;;;;;;7.99;100.00;98883.81;4960973;28;20048;-80
2021/12/01 08:39:25;;;;;;;2.45;2.13;;;;;;;7.97;100.00;98873.06;4957174;28;20094;-80
2021/12/01 08:41:50;;;;;;;3.25;2.28;;;;;;;7.98;100.00;98879.34;4943247;29;20476;-80
2021/12/01 08:44:16;;;;;;;2.33;2.05;;;;;;;7.99;100.00;98862.00;4953764;29;20082;-80
2021/12/01 08:46:41;;;;;;;2.72;2.45;;;;;;;8.05;100.00;98872.25;4955684;28;20027;-79
2021/12/01 08:49:07;;;;;;;2.75;2.00;;;;;;;8.05;100.00;98875.00;4972045;28;20480;-80
2021/12/01 08:51:34;;;;;;;2.60;2.35;;;;;;;8.07;100.00;98878.44;4943523;29;20027;-79
2021/12/01 08:53:59;;;;;;;2.35;2.15;;;;;;;8.04;100.00;98886.91;4964798;28;20446;-79
2021/12/01 08:56:25;;;;;;;2.92;1.95;;;;;;;8.05;100.00;98881.31;4958278;28;20035;-80
2021/12/01 08:58:50;;;;;;;3.60;2.25;;;;;;;8.05;100.00;98873.16;4948265;29;20459;-79
2021/12/01 09:01:16;;;;;;;2.72;2.13;;;;;;;8.15;100.00;98867.63;4966866;28;20061;-79
2021/12/01 09:03:41;;;;;;;2.28;2.08;;;;;;;8.08;100.00;98881.00;4968039;28;20028;-79
2021/12/01 09:06:07;;;;;;;2.38;1.90;;;;;;;8.04;100.00;98863.25;4958460;29;20106;-79
2021/12/01 09:08:33;;;;;;;2.45;2.25;;;;;;;8.07;100.00;98864.81;4958116;28;20039;-79
2021/12/01 09:11:02;;;;;;;2.40;2.08;;;;;;;8.12;100.00;98856.16;4955356;28;20058;-80
2021/12/01 09:13:29;;;;;;;2.47;2.00;;;;;;;8.12;100.00;98857.03;4966090;28;20027;-80
2021/12/01 09:15:56;;;;;;;2.78;1.80;;;;;;;8.23;100.00;98850.47;4945945;29;20044;-80
2021/12/01 09:18:23;;;;;;;2.33;1.75;;;;;;;8.22;100.00;98857.78;4955736;28;20028;-80
2021/12/01 09:20:49;;;;;;;1.55;1.40;;;;;;;8.29;100.00;98864.31;4958796;29;20035;-80
2021/12/01 09:23:17;;;;;;;1.45;1.20;;;;;;;8.30;100.00;98865.19;4958654;29;20077;-80
2021/12/01 09:25:44;;;;;;;1.15;1.05;;;;;;;8.29;100.00;98838.94;4950797;29;20065;-80
2021/12/01 09:28:12;;;;;;;1.33;1.23;;;;;;;8.45;100.00;98857.34;4961944;28;20038;-80
2021/12/01 09:30:38;;;;;;;1.50;1.40;;;;;;;8.40;100.00;98846.88;4973229;28;20043;-79
2021/12/01 09:33:03;;;;;;;1.77;1.40;;;;;;;8.43;100.00;98854.78;4957966;28;20062;-79
2021/12/01 09:35:28;;;;;;;1.60;1.15;;;;;;;8.41;100.00;98851.34;4960144;28;20038;-79
2021/12/01 09:37:54;;;;;;;1.77;1.10;;;;;;;8.38;100.00;98842.59;4946509;29;20553;-79
2021/12/01 09:40:20;;;;;;;1.48;0.90;;;;;;;8.42;100.00;98854.91;4959900;28;20083;-79
2021/12/01 09:42:49;;;;;;;1.30;0.80;;;;;;;8.45;100.00;98855.47;4961341;28;20031;-79
2021/12/01 09:45:17;;;;;;;2.58;0.90;;;;;;;8.49;100.00;98844.25;4971334;28;20031;-80
2021/12/01 09:47:43;;;;;;;1.77;0.90;;;;;;;8.58;100.00;98849.63;4976040;28;20058;-79
2021/12/01 09:50:11;;;;;;;1.10;1.00;;;;;;;8.58;100.00;98849.63;4972773;28;20040;-80
2021/12/01 09:52:37;;;;;;;3.40;1.40;;;;;;;8.54;100.00;98833.72;4945041;29;20027;-79
2021/12/01 09:55:04;;;;;;;1.80;1.33;;;;;;;8.52;100.00;98846.66;4958059;28;20387;-78
2021/12/01 09:57:30;;;;;;;5.20;1.20;;;;;;;8.50;100.00;98837.78;4952260;28;20031;-78
2021/12/01 09:59:56;;;;;;;1.27;1.17;;;;;;;8.52;100.00;98849.41;4943359;29;20142;-78
2021/12/01 10:02:24;;;;;;;2.40;1.55;;;;;;;8.53;100.00;98841.06;4948568;28;20058;-78
2021/12/01 10:04:53;;;;;;;5.15;1.50;;;;;;;8.53;100.00;98835.59;4968365;28;20027;-78
2021/12/01 10:07:21;;;;;;;48.00;12.68;;;;;;;8.61;100.00;98834.81;4956782;28;20067;-78
2021/12/01 10:09:52;;;;;;;1.55;1.40;;;;;;;8.66;100.00;98840.66;4953155;28;20058;-78
2021/12/01 10:12:18;;;;;;;2.17;1.40;;;;;;;8.60;100.00;98835.81;4960128;29;20042;-78
2021/12/01 10:14:51;;;;;;;2.45;1.40;;;;;;;8.63;100.00;98835.50;4958226;28;20061;-78
2021/12/01 10:17:16;;;;;;;1.70;1.40;;;;;;;8.71;100.00;98845.63;4968209;28;20498;-77
2021/12/01 10:19:43;;;;;;;7.82;1.67;;;;;;;8.62;100.00;98859.22;4960259;28;20098;-78
2021/12/01 10:22:10;;;;;;;8.23;1.83;;;;;;;8.67;100.00;98842.34;4940090;29;20102;-77
2021/12/01 10:24:37;;;;;;;2.35;1.60;;;;;;;8.59;100.00;98854.06;4946648;29;20031;-78
2021/12/01 10:27:10;;;;;;;2.25;1.73;;;;;;;8.52;100.00;98847.50;4956226;29;20063;-80
2021/12/01 10:29:49;;;;;;;4.75;1.50;;;;;;;8.48;100.00;98840.69;4957977;28;20035;-78
2021/12/01 10:32:18;;;;;;;6.60;2.03;;;;;;;8.44;100.00;98842.00;4956386;28;20043;-78
2021/12/01 10:34:47;;;;;;;3.50;1.83;;;;;;;8.36;100.00;98831.88;4956596;29;20027;-78
2021/12/01 10:37:31;;;;;;;2.90;1.48;;;;;;;8.35;100.00;98832.03;4956636;29;20089;-78
2021/12/01 10:40:21;;;;;;;6.50;1.52;;;;;;;8.30;100.00;98840.66;4940387;29;20470;-78
2021/12/01 10:43:08;;;;;;;4.28;1.08;;;;;;;8.26;100.00;98834.69;4943866;29;20043;-78
2021/12/01 10:45:40;;;;;;;9.02;0.90;;;;;;;8.29;100.00;98837.06;4978072;28;20035;-78
2021/12/01 10:48:09;;;;;;;10.90;1.58;;;;;;;8.34;100.00;98843.94;4960365;28;20372;-80
2021/12/01 10:50:39;;;;;;;6.40;1.42;;;;;;;8.35;100.00;98842.94;4977676;28;20042;-78
2021/12/01 10:53:11;;;;;;;12.13;1.42;;;;;;;8.21;100.00;98841.59;4948829;29;20046;-78
2021/12/01 10:55:46;;;;;;;6.10;1.00;;;;;;;8.20;100.00;98840.75;4979487;28;20046;-78
2021/12/01 10:58:13;;;;;;;5.05;0.80;;;;;;;8.17;100.00;98834.75;4976090;28;20027;-79
2021/12/01 11:00:47;;;;;;;11.07;0.90;;;;;;;8.19;100.00;98841.75;4961669;28;20530;-79
2021/12/01 11:03:16;;;;;;;6.47;1.10;;;;;;;8.18;100.00;98831.88;4958616;29;20109;-79
2021/12/01 11:05:44;;;;;;;12.20;1.13;;;;;;;8.07;100.00;98826.66;4962737;28;20034;-79
2021/12/01 11:08:25;;;;;;;10.50;0.73;;;;;;;8.07;100.00;98838.41;4964766;28;20558;-80
2021/12/01 11:11:03;;;;;;;10.45;1.00;;;;;;;7.88;100.00;98820.31;4962724;28;20028;-80
2021/12/01 11:13:28;;;;;;;10.93;1.08;;;;;;;7.95;100.00;98836.91;4946923;29;20035;-79
2021/12/01 11:16:02;;;;;;;12.35;0.80;;;;;;;7.99;100.00;98834.75;4944781;29;20082;-78
2021/12/01 11:18:34;;;;;;;9.13;0.85;;;;;;;7.94;100.00;98850.72;4968811;28;20484;-80
2021/12/01 11:21:03;;;;;;;2.85;0.60;;;;;;;7.99;100.00;98846.50;4975785;28;20023;-80
2021/12/01 11:23:37;;;;;;;7.90;0.88;;;;;;;8.17;100.00;98854.69;4971863;28;20102;-80
2021/12/01 11:26:08;;;;;;;7.18;0.70;;;;;;;8.37;100.00;98843.63;4956749;29;20055;-80
2021/12/01 11:28:43;;;;;;;7.60;0.60;;;;;;;8.36;100.00;98848.22;4947330;28;20069;-80
2021/12/01 11:31:17;;;;;;;2.90;0.70;;;;;;;8.28;100.00;98842.69;4961434;28;21642;-79
2021/12/01 11:33:44;;;;;;;11.10;1.25;;;;;;;8.23;100.00;98850.47;4975651;28;20118;-79
2021/12/01 11:36:14;;;;;;;7.47;1.02;;;;;;;8.29;100.00;98858.88;4963776;28;20417;-80
2021/12/01 11:38:41;;;;;;;5.03;0.57;;;;;;;8.13;100.00;98855.16;4959204;29;20047;-80
2021/12/01 11:41:08;;;;;;;7.97;0.80;;;;;;;8.08;100.00;98861.06;4961251;29;20027;-80
2021/12/01 11:43:36;;;;;;;7.18;1.02;;;;;;;8.09;100.00;98857.34;4959289;28;20055;-77